createdAt,value
2019-05-17T00:02:01.233Z,23.60
2019-05-17T00:04:31.670Z,23.52
2019-05-17T00:07:02.721Z,21.70
2019-05-17T00:09:33.143Z,25.90
2019-05-17T00:12:02.841Z,24.32
2019-05-17T00:14:33.127Z,24.43
2019-05-17T00:17:03.599Z,20.33
2019-05-17T00:19:33.954Z,28.90
2019-05-17T00:22:03.677Z,22.60
2019-05-17T00:24:33.923Z,24.57
2019-05-17T00:27:03.657Z,19.83
2019-05-17T00:29:33.933Z,30.72
2019-05-17T00:32:03.637Z,21.60
2019-05-17T00:34:33.944Z,30.15
2019-05-17T00:37:03.725Z,22.73
2019-05-17T00:39:36.515Z,21.20
2019-05-17T00:42:06.955Z,27.63
2019-05-17T00:44:37.867Z,21.07
2019-05-17T00:47:08.233Z,25.60
2019-05-17T00:49:38.626Z,23.63
2019-05-17T00:52:09.017Z,30.87
2019-05-17T00:54:39.381Z,22.10
2019-05-17T00:57:09.759Z,31.70
2019-05-17T00:59:40.164Z,27.20
2019-05-17T01:02:10.557Z,25.70
2019-05-17T01:04:40.969Z,25.70
2019-05-17T01:07:11.489Z,25.55
2019-05-17T01:09:41.860Z,22.83
2019-05-17T01:12:12.277Z,28.93
2019-05-17T01:14:42.631Z,34.13
2019-05-17T01:17:12.359Z,23.87
2019-05-17T01:19:42.711Z,25.57
2019-05-17T01:22:13.106Z,36.00
2019-05-17T01:24:43.494Z,32.10
2019-05-17T01:27:13.831Z,27.63
2019-05-17T01:29:46.490Z,43.20
2019-05-17T01:32:17.287Z,28.37
2019-05-17T01:34:47.662Z,24.73
2019-05-17T01:37:18.097Z,36.17
2019-05-17T01:39:48.503Z,28.60
2019-05-17T01:42:18.835Z,37.23
2019-05-17T01:44:49.267Z,30.33
2019-05-17T01:47:20.556Z,32.07
2019-05-17T01:49:50.946Z,29.63
2019-05-17T01:52:21.293Z,30.40
2019-05-17T01:54:51.661Z,31.97
2019-05-17T01:57:21.404Z,32.43
2019-05-17T01:59:51.718Z,29.63
2019-05-17T02:02:27.050Z,35.90
2019-05-17T02:04:57.006Z,35.43
2019-05-17T02:07:27.378Z,28.73
2019-05-17T02:09:57.783Z,33.87
2019-05-17T02:12:28.490Z,32.20
2019-05-17T02:14:58.967Z,32.67
2019-05-17T02:17:29.389Z,37.80
2019-05-17T02:19:59.901Z,37.17
2019-05-17T02:22:30.300Z,38.23
2019-05-17T02:25:00.042Z,38.53
2019-05-17T02:27:35.860Z,33.23
2019-05-17T02:30:02.447Z,42.63
2019-05-17T02:32:33.630Z,46.87
2019-05-17T02:35:03.588Z,46.93
2019-05-17T02:37:33.902Z,33.40
2019-05-17T02:40:08.309Z,38.73
2019-05-17T02:42:36.772Z,34.43
2019-05-17T02:45:07.385Z,37.97
2019-05-17T02:47:37.722Z,37.25
2019-05-17T02:50:08.885Z,39.00
2019-05-17T02:52:39.287Z,37.33
2019-05-17T02:55:12.469Z,37.30
2019-05-17T02:57:43.219Z,34.90
2019-05-17T03:00:13.581Z,35.97
2019-05-17T03:02:44.609Z,39.73
2019-05-17T03:05:15.191Z,31.03
2019-05-17T03:07:45.555Z,43.23
2019-05-17T03:10:24.121Z,35.93
2019-05-17T03:12:47.346Z,35.47
2019-05-17T03:15:17.047Z,39.33
2019-05-17T03:17:47.303Z,32.70
2019-05-17T03:20:17.741Z,38.20
2019-05-17T03:22:48.064Z,35.00
2019-05-17T03:25:18.430Z,36.50
2019-05-17T03:27:48.149Z,40.03
2019-05-17T03:30:19.092Z,38.27
2019-05-17T03:32:56.188Z,34.00
2019-05-17T03:35:26.472Z,35.93
2019-05-17T03:37:55.472Z,40.57
2019-05-17T03:41:00.551Z,31.77
2019-05-17T03:42:56.288Z,38.33
2019-05-17T03:45:26.587Z,34.70
2019-05-17T03:47:56.285Z,30.10
2019-05-17T03:50:26.526Z,35.60
2019-05-17T03:52:56.203Z,29.80
2019-05-17T03:55:26.498Z,44.83
2019-05-17T03:57:56.192Z,35.57
2019-05-17T04:00:26.477Z,31.77
2019-05-17T04:02:56.163Z,38.20
2019-05-17T04:05:26.566Z,34.43
2019-05-17T04:07:56.229Z,25.97
2019-05-17T04:10:26.502Z,33.20
2019-05-17T04:12:56.162Z,30.63
2019-05-17T04:15:26.438Z,25.70
2019-05-17T04:17:56.806Z,28.93
2019-05-17T04:20:27.159Z,33.58
2019-05-17T04:22:58.319Z,27.10
2019-05-17T04:25:28.605Z,27.30
2019-05-17T04:27:59.066Z,27.83
2019-05-17T04:30:32.298Z,19.37
2019-05-17T04:33:03.435Z,28.77
2019-05-17T04:35:33.549Z,21.53
2019-05-17T04:38:04.546Z,27.47
2019-05-17T04:40:34.966Z,23.50
2019-05-17T04:43:05.440Z,22.40
2019-05-17T04:45:35.802Z,22.50
2019-05-17T04:48:06.144Z,26.27
2019-05-17T04:50:35.816Z,28.77
2019-05-17T04:53:06.100Z,21.20
2019-05-17T04:55:35.839Z,25.93
2019-05-17T04:58:05.438Z,18.83
2019-05-17T05:00:35.688Z,27.40
2019-05-17T05:03:06.064Z,23.70
2019-05-17T05:05:35.734Z,31.80
2019-05-17T05:08:06.064Z,20.83
2019-05-17T05:10:38.453Z,29.18
2019-05-17T05:13:07.641Z,25.33
2019-05-17T05:15:39.244Z,23.83
2019-05-17T05:18:12.948Z,24.43
2019-05-17T05:20:43.647Z,23.27
2019-05-17T05:23:14.890Z,20.53
2019-05-17T05:25:44.483Z,22.03
2019-05-17T05:28:14.776Z,23.93
2019-05-17T05:30:45.131Z,20.03
2019-05-17T05:33:14.917Z,21.93
2019-05-17T05:35:45.288Z,21.23
2019-05-17T05:38:15.026Z,23.40
2019-05-17T05:40:45.493Z,19.00
2019-05-17T05:43:15.962Z,24.53
2019-05-17T05:45:46.431Z,20.83
2019-05-17T05:48:16.890Z,23.43
2019-05-17T05:50:47.319Z,14.17
2019-05-17T05:53:17.778Z,15.17
2019-05-17T05:55:48.241Z,17.87
2019-05-17T05:58:18.671Z,17.57
2019-05-17T06:00:49.026Z,19.73
2019-05-17T06:03:18.881Z,14.30
2019-05-17T06:05:48.527Z,13.83
2019-05-17T06:08:18.864Z,14.40
2019-05-17T06:10:49.297Z,11.93
2019-05-17T06:13:19.141Z,14.97
2019-05-17T06:15:51.616Z,21.03
2019-05-17T06:18:22.665Z,17.37
2019-05-17T06:20:53.338Z,16.33
2019-05-17T06:23:23.544Z,18.90
2019-05-17T06:25:54.075Z,13.00
2019-05-17T06:28:24.437Z,14.83
2019-05-17T06:30:54.901Z,15.97
2019-05-17T06:33:30.539Z,10.97
2019-05-17T06:35:57.350Z,17.17
2019-05-17T06:38:27.750Z,14.70
2019-05-17T06:40:58.142Z,15.63
2019-05-17T06:43:27.886Z,15.07
2019-05-17T06:45:58.201Z,11.90
2019-05-17T06:48:28.584Z,13.10
2019-05-17T06:50:58.329Z,13.20
2019-05-17T06:53:27.967Z,11.93
2019-05-17T06:55:57.630Z,17.63
2019-05-17T06:58:28.270Z,20.60
2019-05-17T07:00:59.957Z,15.33
2019-05-17T07:03:29.805Z,16.52
2019-05-17T07:06:01.814Z,13.00
2019-05-17T07:08:31.591Z,16.53
2019-05-17T07:11:01.887Z,15.17
2019-05-17T07:13:32.292Z,14.43
2019-05-17T07:16:02.663Z,14.83
2019-05-17T07:18:32.401Z,13.28
2019-05-17T07:21:03.522Z,20.13
2019-05-17T07:23:36.127Z,15.97
2019-05-17T07:26:09.077Z,20.60
2019-05-17T07:28:40.478Z,25.80
2019-05-17T07:31:10.233Z,18.70
2019-05-17T07:33:40.593Z,20.43
2019-05-17T07:36:10.352Z,20.50
2019-05-17T07:38:40.647Z,19.60
2019-05-17T07:41:10.375Z,19.47
2019-05-17T07:43:41.066Z,28.63
2019-05-17T07:46:10.791Z,20.03
2019-05-17T07:48:41.381Z,21.47
2019-05-17T07:51:11.086Z,18.20
2019-05-17T07:53:40.744Z,16.63
2019-05-17T07:56:10.421Z,16.80
2019-05-17T07:58:40.687Z,16.97
2019-05-17T08:01:10.433Z,18.20
2019-05-17T08:03:40.595Z,20.47
2019-05-17T08:06:10.828Z,16.33
2019-05-17T08:08:41.300Z,19.93
2019-05-17T08:11:11.049Z,16.20
2019-05-17T08:13:40.665Z,14.00
2019-05-17T08:16:10.486Z,15.63
2019-05-17T08:18:40.770Z,17.50
2019-05-17T08:21:10.573Z,15.73
2019-05-17T08:23:40.253Z,22.03
2019-05-17T08:26:10.744Z,21.33
2019-05-17T08:28:41.210Z,20.47
2019-05-17T08:31:10.949Z,19.73
2019-05-17T08:33:40.779Z,15.53
2019-05-17T08:36:10.420Z,13.77
2019-05-17T08:38:40.712Z,13.60
2019-05-17T08:41:10.677Z,17.33
2019-05-17T08:43:46.482Z,16.47
2019-05-17T08:46:12.320Z,15.27
2019-05-17T08:48:42.677Z,15.77
2019-05-17T08:51:12.445Z,14.57
2019-05-17T08:53:42.090Z,15.13
2019-05-17T08:56:12.395Z,16.67
2019-05-17T08:58:42.211Z,17.77
2019-05-17T09:01:12.546Z,26.67
2019-05-17T09:03:42.321Z,21.60
2019-05-17T09:06:12.857Z,17.80
2019-05-17T09:08:43.368Z,20.23
2019-05-17T09:11:13.175Z,17.63
2019-05-17T09:13:57.362Z,15.30
2019-05-17T09:16:19.450Z,20.37
2019-05-17T09:18:50.210Z,19.07
2019-05-17T09:21:21.951Z,20.77
2019-05-17T09:23:51.915Z,20.37
2019-05-17T09:26:22.199Z,24.50
2019-05-17T09:28:51.958Z,16.53
2019-05-17T09:31:22.248Z,19.07
2019-05-17T09:33:51.967Z,17.67
2019-05-17T09:36:22.439Z,17.83
2019-05-17T09:38:52.176Z,21.23
2019-05-17T09:41:21.923Z,20.12
2019-05-17T09:43:51.602Z,25.40
2019-05-17T09:46:21.848Z,24.67
2019-05-17T09:48:51.668Z,24.93
2019-05-17T09:51:22.057Z,28.73
2019-05-17T09:53:51.818Z,20.67
2019-05-17T09:56:22.135Z,27.80
2019-05-17T09:58:51.900Z,24.67
2019-05-17T10:01:21.548Z,27.33
2019-05-17T10:03:51.273Z,21.07
2019-05-17T10:06:21.616Z,22.83
2019-05-17T10:08:52.049Z,19.80
2019-05-17T10:11:22.539Z,22.13
2019-05-17T10:13:52.262Z,27.87
2019-05-17T10:16:22.603Z,26.23
2019-05-17T10:18:52.358Z,25.17
2019-05-17T10:21:22.675Z,27.10
2019-05-17T10:23:52.402Z,24.80
2019-05-17T10:26:22.663Z,23.70
2019-05-17T10:28:53.435Z,22.63
2019-05-17T10:31:23.221Z,29.67
2019-05-17T10:33:52.861Z,28.53
2019-05-17T10:36:22.548Z,27.57
2019-05-17T10:38:52.202Z,21.60
2019-05-17T10:41:21.909Z,26.67
2019-05-17T10:43:51.571Z,23.33
2019-05-17T10:46:21.238Z,25.83
2019-05-17T10:48:51.570Z,27.33
2019-05-17T10:51:21.326Z,23.77
2019-05-17T10:53:51.417Z,23.13
2019-05-17T10:56:23.732Z,24.90
2019-05-17T10:58:53.182Z,21.33
2019-05-17T11:01:22.762Z,23.17
2019-05-17T11:03:53.101Z,25.83
2019-05-17T11:06:22.840Z,19.50
2019-05-17T11:08:53.227Z,19.03
2019-05-17T11:11:22.929Z,23.47
2019-05-17T11:13:53.119Z,23.47
2019-05-17T11:16:23.566Z,25.53
2019-05-17T11:18:53.302Z,20.43
2019-05-17T11:21:22.938Z,22.87
2019-05-17T11:23:52.605Z,19.70
2019-05-17T11:26:22.219Z,21.23
2019-05-17T11:28:52.512Z,20.63
2019-05-17T11:31:22.250Z,24.37
2019-05-17T11:33:52.574Z,20.07
2019-05-17T11:36:22.315Z,19.97
2019-05-17T11:38:52.712Z,22.17
2019-05-17T11:41:22.537Z,22.83
2019-05-17T11:43:52.848Z,21.10
2019-05-17T11:46:35.245Z,25.80
2019-05-17T11:48:54.686Z,23.67
2019-05-17T11:51:26.969Z,24.27
2019-05-17T11:53:56.284Z,30.20
2019-05-17T11:56:26.010Z,22.80
2019-05-17T11:58:56.290Z,24.87
2019-05-17T12:01:25.997Z,22.93
2019-05-17T12:03:56.332Z,20.80
2019-05-17T12:06:26.107Z,23.67
2019-05-17T12:08:56.609Z,22.13
2019-05-17T12:11:26.496Z,21.50
2019-05-17T12:13:56.092Z,23.63
2019-05-17T12:16:25.856Z,23.17
2019-05-17T12:18:56.124Z,28.17
2019-05-17T12:21:26.589Z,29.40
2019-05-17T12:23:57.138Z,28.80
2019-05-17T12:26:27.642Z,23.00
2019-05-17T12:28:58.184Z,21.60
2019-05-17T12:31:27.978Z,21.00
2019-05-17T12:33:58.351Z,19.47
2019-05-17T12:36:28.107Z,21.90
2019-05-17T12:38:57.865Z,20.10
2019-05-17T12:41:27.574Z,21.60
2019-05-17T12:43:57.248Z,19.70
2019-05-17T12:46:26.895Z,26.60
2019-05-17T12:48:56.554Z,24.13
2019-05-17T12:51:26.213Z,20.23
2019-05-17T12:53:56.688Z,21.70
2019-05-17T12:56:30.312Z,21.42
2019-05-17T12:59:00.882Z,50.70
2019-05-17T13:01:31.542Z,21.97
2019-05-17T13:04:02.330Z,39.63
2019-05-17T13:06:32.157Z,22.58
2019-05-17T13:09:02.696Z,22.83
2019-05-17T13:11:32.487Z,22.75
2019-05-17T13:14:02.843Z,24.63
2019-05-17T13:16:32.539Z,23.30
2019-05-17T13:19:02.825Z,22.00
2019-05-17T13:21:33.586Z,23.80
2019-05-17T13:24:04.084Z,22.10
2019-05-17T13:26:34.395Z,24.37
2019-05-17T13:29:04.087Z,28.60
2019-05-17T13:31:33.713Z,29.67
2019-05-17T13:34:03.417Z,25.30
2019-05-17T13:36:33.068Z,27.87
2019-05-17T13:39:04.848Z,21.50
2019-05-17T13:41:34.610Z,23.90
2019-05-17T13:44:04.461Z,27.37
2019-05-17T13:46:34.152Z,22.60
2019-05-17T13:49:03.763Z,21.43
2019-05-17T13:51:34.657Z,21.80
2019-05-17T13:54:04.341Z,22.87
2019-05-17T13:56:34.085Z,26.70
2019-05-17T13:59:03.741Z,21.10
2019-05-17T14:01:34.179Z,18.73
2019-05-17T14:04:04.092Z,20.27
2019-05-17T14:06:33.875Z,19.17
2019-05-17T14:09:04.392Z,18.73
2019-05-17T14:11:34.843Z,14.63
2019-05-17T14:14:04.734Z,22.90
2019-05-17T14:16:35.143Z,16.13
2019-05-17T14:19:04.939Z,17.73
2019-05-17T14:21:34.630Z,16.13
2019-05-17T14:24:04.425Z,18.10
2019-05-17T14:26:35.569Z,23.20
2019-05-17T14:29:05.326Z,17.13
2019-05-17T14:31:35.069Z,19.70
2019-05-17T14:34:05.413Z,17.50
2019-05-17T14:36:35.786Z,17.07
2019-05-17T14:39:06.755Z,15.93
2019-05-17T14:41:37.105Z,15.33
2019-05-17T14:44:06.864Z,18.17
2019-05-17T14:46:36.622Z,15.30
2019-05-17T14:49:08.528Z,17.53
2019-05-17T14:51:38.248Z,14.70
2019-05-17T14:54:08.631Z,15.63
2019-05-17T14:56:38.445Z,16.30
2019-05-17T14:59:08.800Z,16.17
2019-05-17T15:01:38.673Z,15.13
2019-05-17T15:04:09.471Z,15.13
2019-05-17T15:06:39.960Z,15.72
2019-05-17T15:09:11.704Z,18.27
2019-05-17T15:11:43.200Z,15.93
2019-05-17T15:14:13.593Z,18.37
2019-05-17T15:16:44.105Z,15.37
2019-05-17T15:19:14.529Z,19.27
2019-05-17T15:21:44.271Z,14.10
2019-05-17T15:24:14.549Z,14.30
2019-05-17T15:26:44.305Z,19.57
2019-05-17T15:29:14.596Z,16.03
2019-05-17T15:31:44.857Z,15.80
2019-05-17T15:34:14.474Z,15.70
2019-05-17T15:36:44.171Z,14.30
2019-05-17T15:39:13.820Z,20.80
2019-05-17T15:41:44.148Z,14.13
2019-05-17T15:44:13.853Z,16.10
2019-05-17T15:46:44.124Z,14.73
2019-05-17T15:49:14.489Z,16.17
2019-05-17T15:51:44.558Z,14.73
2019-05-17T15:54:14.278Z,17.27
2019-05-17T15:56:44.810Z,16.60
2019-05-17T15:59:16.620Z,14.83
2019-05-17T16:01:46.594Z,13.33
2019-05-17T16:04:16.315Z,15.20
2019-05-17T16:06:47.083Z,12.43
2019-05-17T16:09:16.773Z,17.10
2019-05-17T16:11:47.200Z,15.53
2019-05-17T16:14:17.009Z,15.33
2019-05-17T16:16:46.708Z,16.23
2019-05-17T16:19:17.073Z,15.70
2019-05-17T16:21:47.652Z,14.60
2019-05-17T16:24:17.426Z,13.30
2019-05-17T16:26:47.921Z,13.53
2019-05-17T16:29:19.530Z,14.83
2019-05-17T16:31:50.002Z,19.10
2019-05-17T16:34:22.015Z,19.93
2019-05-17T16:36:52.491Z,18.00
2019-05-17T16:39:24.024Z,17.07
2019-05-17T16:41:54.746Z,19.97
2019-05-17T16:44:27.463Z,19.47
2019-05-17T16:46:57.302Z,19.33
2019-05-17T16:49:28.585Z,20.27
2019-05-17T16:51:58.377Z,17.60
2019-05-17T16:54:28.066Z,19.03
2019-05-17T16:56:57.736Z,20.23
2019-05-17T16:59:27.404Z,21.23
2019-05-17T17:01:59.761Z,17.87
2019-05-17T17:04:29.542Z,22.20
2019-05-17T17:06:59.264Z,18.93
2019-05-17T17:09:28.982Z,22.20
2019-05-17T17:11:58.700Z,19.33
2019-05-17T17:14:28.319Z,19.15
2019-05-17T17:16:58.042Z,20.30
2019-05-17T17:19:28.503Z,22.83
2019-05-17T17:21:58.268Z,18.93
2019-05-17T17:24:28.542Z,17.20
2019-05-17T17:26:58.251Z,21.03
2019-05-17T17:29:28.647Z,21.57
2019-05-17T17:31:58.654Z,21.73
2019-05-17T17:34:28.337Z,19.77
2019-05-17T17:36:58.088Z,20.20
2019-05-17T17:39:28.447Z,20.57
2019-05-17T17:41:58.225Z,18.25
2019-05-17T17:44:28.546Z,21.77
2019-05-17T17:46:59.142Z,22.10
2019-05-17T17:49:29.578Z,18.73
2019-05-17T17:51:59.399Z,18.03
2019-05-17T17:54:29.078Z,20.73
2019-05-17T17:56:58.716Z,17.37
2019-05-17T17:59:28.341Z,20.50
2019-05-17T18:01:58.027Z,24.70
2019-05-17T18:04:27.745Z,19.57
2019-05-17T18:06:57.440Z,27.67
2019-05-17T18:09:27.152Z,19.93
2019-05-17T18:11:56.777Z,24.80
2019-05-17T18:14:26.447Z,24.53
2019-05-17T18:16:58.981Z,23.40
2019-05-17T18:19:28.660Z,21.37
2019-05-17T18:21:58.372Z,20.77
2019-05-17T18:24:28.698Z,20.77
2019-05-17T18:26:58.454Z,21.67
2019-05-17T18:29:28.106Z,23.00
2019-05-17T18:31:57.777Z,20.10
2019-05-17T18:34:27.422Z,22.30
2019-05-17T18:36:57.198Z,21.13
2019-05-17T18:39:27.541Z,22.93
2019-05-17T18:41:57.964Z,24.93
2019-05-17T18:44:28.422Z,19.75
2019-05-17T18:46:58.163Z,21.90
2019-05-17T18:49:28.630Z,19.27
2019-05-17T18:51:59.018Z,19.57
2019-05-17T18:54:28.834Z,21.47
2019-05-17T18:56:59.099Z,20.63
2019-05-17T18:59:28.862Z,25.00
2019-05-17T19:01:58.939Z,21.00
2019-05-17T19:04:28.670Z,22.00
2019-05-17T19:06:58.922Z,19.90
2019-05-17T19:09:29.399Z,19.00
2019-05-17T19:11:59.843Z,22.87
2019-05-17T19:14:42.088Z,22.20
2019-05-17T19:17:01.844Z,19.67
2019-05-17T19:19:31.705Z,23.97
2019-05-17T19:22:01.505Z,21.77
2019-05-17T19:24:31.115Z,24.50
2019-05-17T19:27:01.427Z,25.83
2019-05-17T19:29:31.850Z,22.07
2019-05-17T19:32:01.611Z,20.43
2019-05-17T19:34:31.223Z,19.47
2019-05-17T19:37:00.994Z,20.37
2019-05-17T19:39:31.266Z,18.47
2019-05-17T19:42:01.665Z,20.20
2019-05-17T19:44:32.197Z,17.87
2019-05-17T19:47:01.979Z,19.30
2019-05-17T19:49:32.279Z,19.70
2019-05-17T19:52:02.793Z,17.83
2019-05-17T19:54:32.522Z,15.50
2019-05-17T19:57:02.808Z,15.30
2019-05-17T19:59:33.173Z,16.53
2019-05-17T20:02:06.424Z,14.40
2019-05-17T20:04:35.532Z,15.53
2019-05-17T20:07:05.256Z,16.77
2019-05-17T20:09:35.533Z,16.53
2019-05-17T20:12:05.894Z,16.53
2019-05-17T20:14:35.593Z,14.93
2019-05-17T20:17:05.889Z,18.53
2019-05-17T20:19:35.562Z,18.73
2019-05-17T20:22:05.187Z,17.43
2019-05-17T20:24:35.600Z,15.87
2019-05-17T20:27:05.960Z,18.43
2019-05-17T20:29:36.343Z,15.60
2019-05-17T20:32:06.065Z,14.53
2019-05-17T20:34:36.346Z,11.90
2019-05-17T20:37:06.083Z,15.50
2019-05-17T20:39:36.325Z,14.43
2019-05-17T20:42:06.034Z,16.73
2019-05-17T20:44:36.268Z,13.53
2019-05-17T20:47:05.978Z,13.83
2019-05-17T20:49:36.223Z,13.27
2019-05-17T20:52:05.956Z,13.83
2019-05-17T20:54:36.308Z,13.63
2019-05-17T20:57:05.981Z,14.83
2019-05-17T20:59:35.565Z,13.43
2019-05-17T21:02:05.167Z,17.03
2019-05-17T21:04:34.742Z,16.10
2019-05-17T21:07:04.363Z,14.87
2019-05-17T21:09:34.682Z,14.37
2019-05-17T21:12:04.389Z,15.70
2019-05-17T21:14:34.027Z,14.60
2019-05-17T21:17:03.664Z,17.30
2019-05-17T21:19:33.973Z,14.70
2019-05-17T21:22:04.359Z,16.17
2019-05-17T21:24:34.739Z,19.23
2019-05-17T21:27:05.070Z,14.43
2019-05-17T21:29:35.357Z,15.83
2019-05-17T21:32:05.203Z,18.20
2019-05-17T21:34:35.469Z,16.73
2019-05-17T21:37:05.242Z,16.00
2019-05-17T21:39:35.554Z,15.37
2019-05-17T21:42:05.270Z,15.47
2019-05-17T21:44:35.656Z,16.47
2019-05-17T21:47:06.034Z,16.80
2019-05-17T21:49:36.654Z,16.40
2019-05-17T21:52:07.111Z,17.77
2019-05-17T21:54:37.518Z,14.00
2019-05-17T21:57:07.870Z,17.57
2019-05-17T21:59:38.242Z,17.37
2019-05-17T22:02:08.688Z,15.77
2019-05-17T22:04:39.052Z,18.67
2019-05-17T22:07:09.406Z,18.33
2019-05-17T22:09:39.839Z,18.80
2019-05-17T22:12:11.310Z,16.30
2019-05-17T22:14:42.191Z,18.13
2019-05-17T22:17:11.851Z,22.10
2019-05-17T22:19:42.233Z,18.43
2019-05-17T22:22:11.948Z,21.80
2019-05-17T22:24:41.598Z,19.73
2019-05-17T22:27:11.250Z,19.47
2019-05-17T22:29:42.798Z,18.43
2019-05-17T22:32:12.540Z,18.80
2019-05-17T22:34:42.141Z,15.47
2019-05-17T22:37:11.812Z,17.67
2019-05-17T22:39:42.088Z,16.57
2019-05-17T22:42:12.420Z,15.43
2019-05-17T22:44:42.780Z,18.93
2019-05-17T22:47:13.130Z,17.47
2019-05-17T22:49:43.496Z,17.90
2019-05-17T22:52:13.848Z,16.77
2019-05-17T22:54:44.207Z,18.33
2019-05-17T22:57:14.555Z,16.17
2019-05-17T22:59:44.917Z,16.97
2019-05-17T23:02:14.599Z,19.77
2019-05-17T23:04:44.865Z,18.87
2019-05-17T23:07:15.239Z,16.33
2019-05-17T23:09:45.653Z,17.37
2019-05-17T23:12:16.392Z,19.10
2019-05-17T23:14:46.732Z,19.93
2019-05-17T23:17:16.440Z,19.27
2019-05-17T23:19:46.712Z,16.83
2019-05-17T23:22:17.066Z,19.23
2019-05-17T23:24:47.443Z,19.50
2019-05-17T23:27:18.039Z,19.47
2019-05-17T23:29:48.430Z,21.17
2019-05-17T23:32:19.478Z,18.00
2019-05-17T23:34:49.849Z,19.83
2019-05-17T23:37:19.568Z,19.93
2019-05-17T23:39:49.845Z,21.80
2019-05-17T23:42:20.196Z,20.10
2019-05-17T23:44:50.554Z,19.17
2019-05-17T23:47:21.190Z,19.17
2019-05-17T23:49:51.478Z,18.63
2019-05-17T23:52:21.831Z,18.27
2019-05-17T23:54:52.226Z,17.50
2019-05-17T23:57:22.605Z,18.07
2019-05-17T23:59:52.970Z,20.07
